createdAt,value
2018-06-09T00:00:31.729Z,26.00
2018-06-09T00:03:00.613Z,25.60
2018-06-09T00:05:29.101Z,24.70
2018-06-09T00:07:57.596Z,24.73
2018-06-09T00:10:26.080Z,24.67
2018-06-09T00:12:54.572Z,24.30
2018-06-09T00:15:23.046Z,24.17
2018-06-09T00:17:51.532Z,24.77
2018-06-09T00:20:19.985Z,25.40
2018-06-09T00:22:48.549Z,24.57
2018-06-09T00:25:16.983Z,23.77
2018-06-09T00:27:45.510Z,23.23
2018-06-09T00:30:14.048Z,24.30
2018-06-09T00:32:42.482Z,24.33
2018-06-09T00:35:10.980Z,25.07
2018-06-09T00:37:39.415Z,24.77
2018-06-09T00:40:07.877Z,24.47
2018-06-09T00:42:36.315Z,24.80
2018-06-09T00:45:04.904Z,23.87
2018-06-09T00:47:33.330Z,24.07
2018-06-09T00:50:01.796Z,24.90
2018-06-09T00:52:30.233Z,25.23
2018-06-09T00:54:58.670Z,25.13
2018-06-09T00:57:27.123Z,25.37
2018-06-09T00:59:55.559Z,23.90
2018-06-09T01:02:24.065Z,25.20
2018-06-09T01:04:52.901Z,24.63
2018-06-09T01:07:21.357Z,24.53
2018-06-09T01:09:49.914Z,23.87
2018-06-09T01:12:18.335Z,23.43
2018-06-09T01:14:46.950Z,24.20
2018-06-09T01:17:15.371Z,24.20
2018-06-09T01:19:43.941Z,22.47
2018-06-09T01:22:12.511Z,24.23
2018-06-09T01:24:40.950Z,23.60
2018-06-09T01:27:09.358Z,23.80
2018-06-09T01:29:37.808Z,25.07
2018-06-09T01:32:06.425Z,23.67
2018-06-09T01:34:34.915Z,24.57
2018-06-09T01:37:03.383Z,25.10
2018-06-09T01:39:31.893Z,24.00
2018-06-09T01:42:00.782Z,25.53
2018-06-09T01:44:28.963Z,24.93
2018-06-09T01:46:57.485Z,25.73
2018-06-09T01:49:25.997Z,25.43
2018-06-09T01:51:54.543Z,25.43
2018-06-09T01:54:23.097Z,24.37
2018-06-09T01:56:51.611Z,26.57
2018-06-09T01:59:20.185Z,26.00
2018-06-09T02:01:48.713Z,24.67
2018-06-09T02:04:17.537Z,25.43
2018-06-09T02:06:46.090Z,26.30
2018-06-09T02:09:14.985Z,25.67
2018-06-09T02:11:43.771Z,24.80
2018-06-09T02:14:12.302Z,26.43
2018-06-09T02:16:40.866Z,25.27
2018-06-09T02:19:09.489Z,26.67
2018-06-09T02:21:39.219Z,25.47
2018-06-09T02:24:07.748Z,25.93
2018-06-09T02:26:36.331Z,26.83
2018-06-09T02:29:05.046Z,26.50
2018-06-09T02:31:34.238Z,25.60
2018-06-09T02:34:04.196Z,26.43
2018-06-09T02:36:33.465Z,26.30
2018-06-09T02:39:02.574Z,25.27
2018-06-09T02:41:31.458Z,26.80
2018-06-09T02:44:01.732Z,26.17
2018-06-09T02:46:30.436Z,26.33
2018-06-09T02:48:59.993Z,26.47
2018-06-09T02:51:29.151Z,26.87
2018-06-09T02:53:57.692Z,26.50
2018-06-09T02:56:25.892Z,27.60
2018-06-09T02:58:55.312Z,25.43
2018-06-09T03:01:23.818Z,27.50
2018-06-09T03:03:52.439Z,27.83
2018-06-09T03:06:20.986Z,27.33
2018-06-09T03:08:49.549Z,26.87
2018-06-09T03:11:18.046Z,27.17
2018-06-09T03:13:46.733Z,26.63
2018-06-09T03:16:15.248Z,27.33
2018-06-09T03:18:43.768Z,26.53
2018-06-09T03:21:12.532Z,27.17
2018-06-09T03:23:41.107Z,25.27
2018-06-09T03:26:09.699Z,26.33
2018-06-09T03:28:38.235Z,26.27
2018-06-09T03:31:06.722Z,26.60
2018-06-09T03:33:35.299Z,27.10
2018-06-09T03:36:03.808Z,26.23
2018-06-09T03:38:32.385Z,26.00
2018-06-09T03:41:00.973Z,25.50
2018-06-09T03:43:29.522Z,26.20
2018-06-09T03:45:58.065Z,25.90
2018-06-09T03:48:26.626Z,26.50
2018-06-09T03:50:55.192Z,25.67
2018-06-09T03:53:23.711Z,26.20
2018-06-09T03:55:52.230Z,26.17
2018-06-09T03:58:21.051Z,26.60
2018-06-09T04:00:50.195Z,27.30
2018-06-09T04:03:18.704Z,24.20
2018-06-09T04:05:47.203Z,25.43
2018-06-09T04:08:15.749Z,25.27
2018-06-09T04:10:44.229Z,24.93
2018-06-09T04:13:12.707Z,25.20
2018-06-09T04:15:41.281Z,25.50
2018-06-09T04:18:09.793Z,25.13
2018-06-09T04:20:38.337Z,26.10
2018-06-09T04:23:06.776Z,25.33
2018-06-09T04:25:35.526Z,25.53
2018-06-09T04:28:04.126Z,24.83
2018-06-09T04:30:32.736Z,24.83
2018-06-09T04:33:01.577Z,25.83
2018-06-09T04:35:30.169Z,25.77
2018-06-09T04:37:58.743Z,23.83
2018-06-09T04:40:27.245Z,23.87
2018-06-09T04:42:55.761Z,24.50
2018-06-09T04:45:24.277Z,24.63
2018-06-09T04:47:53.120Z,24.73
2018-06-09T04:50:21.708Z,24.67
2018-06-09T04:52:50.319Z,25.17
2018-06-09T04:55:18.834Z,25.20
2018-06-09T04:57:47.404Z,25.07
2018-06-09T05:00:16.011Z,23.07
2018-06-09T05:02:44.525Z,23.40
2018-06-09T05:05:13.009Z,24.33
2018-06-09T05:07:41.511Z,23.77
2018-06-09T05:10:10.013Z,23.93
2018-06-09T05:12:38.204Z,23.60
2018-06-09T05:15:06.416Z,22.63
2018-06-09T05:17:34.970Z,23.70
2018-06-09T05:20:03.932Z,24.00
2018-06-09T05:22:32.487Z,22.97
2018-06-09T05:25:01.017Z,22.33
2018-06-09T05:27:29.653Z,23.20
2018-06-09T05:29:59.267Z,21.90
2018-06-09T05:32:27.806Z,22.63
2018-06-09T05:34:56.304Z,22.13
2018-06-09T05:37:24.844Z,21.47
2018-06-09T05:39:53.370Z,22.23
2018-06-09T05:42:21.998Z,21.77
2018-06-09T05:44:50.841Z,21.10
2018-06-09T05:47:19.417Z,21.97
2018-06-09T05:49:47.893Z,21.57
2018-06-09T05:52:16.417Z,20.63
2018-06-09T05:54:44.896Z,21.63
2018-06-09T05:57:13.117Z,21.83
2018-06-09T05:59:41.670Z,20.67
2018-06-09T06:02:11.322Z,21.67
2018-06-09T06:04:39.835Z,21.53
2018-06-09T06:07:08.449Z,22.37
2018-06-09T06:09:37.011Z,21.23
2018-06-09T06:12:05.696Z,21.77
2018-06-09T06:14:34.248Z,21.37
2018-06-09T06:17:02.858Z,21.03
2018-06-09T06:19:31.390Z,20.17
2018-06-09T06:21:59.930Z,19.80
2018-06-09T06:24:28.543Z,20.20
2018-06-09T06:26:57.089Z,19.60
2018-06-09T06:29:25.673Z,19.57
2018-06-09T06:31:54.708Z,20.87
2018-06-09T06:34:23.281Z,19.67
2018-06-09T06:36:51.804Z,18.83
2018-06-09T06:39:21.038Z,20.07
2018-06-09T06:41:49.536Z,19.43
2018-06-09T06:44:18.761Z,17.63
2018-06-09T06:46:47.297Z,19.07
2018-06-09T06:49:15.850Z,17.57
2018-06-09T06:51:44.421Z,17.70
2018-06-09T06:54:12.951Z,16.77
2018-06-09T06:56:41.501Z,18.63
2018-06-09T06:59:09.992Z,17.83
2018-06-09T07:01:38.632Z,17.47
2018-06-09T07:04:07.123Z,16.67
2018-06-09T07:06:35.618Z,16.00
2018-06-09T07:09:05.977Z,15.60
2018-06-09T07:11:34.550Z,15.00
2018-06-09T07:14:03.121Z,16.13
2018-06-09T07:16:31.640Z,15.80
2018-06-09T07:19:00.249Z,14.73
2018-06-09T07:21:28.432Z,14.27
2018-06-09T07:23:57.212Z,13.80
2018-06-09T07:26:25.749Z,13.90
2018-06-09T07:28:54.328Z,13.50
2018-06-09T07:31:22.895Z,13.90
2018-06-09T07:33:51.079Z,13.67
2018-06-09T07:36:19.616Z,13.57
2018-06-09T07:38:48.201Z,13.17
2018-06-09T07:41:16.760Z,13.33
2018-06-09T07:43:45.328Z,13.07
2018-06-09T07:46:13.866Z,14.13
2018-06-09T07:48:42.451Z,12.83
2018-06-09T07:51:11.038Z,12.57
2018-06-09T07:53:39.555Z,13.03
2018-06-09T07:56:08.477Z,12.30
2018-06-09T07:58:37.046Z,12.33
2018-06-09T08:01:05.637Z,11.93
2018-06-09T08:03:34.148Z,11.77
2018-06-09T08:06:02.732Z,10.87
2018-06-09T08:08:31.183Z,11.63
2018-06-09T08:11:00.148Z,11.63
2018-06-09T08:13:28.655Z,12.60
2018-06-09T08:15:57.222Z,11.27
2018-06-09T08:18:26.278Z,11.47
2018-06-09T08:20:54.907Z,12.60
2018-06-09T08:23:23.502Z,11.97
2018-06-09T08:25:52.097Z,12.07
2018-06-09T08:28:20.728Z,13.20
2018-06-09T08:30:49.368Z,12.20
2018-06-09T08:33:17.988Z,12.60
2018-06-09T08:35:46.711Z,12.67
2018-06-09T08:38:15.221Z,12.10
2018-06-09T08:40:44.085Z,12.07
2018-06-09T08:43:12.647Z,12.80
2018-06-09T08:45:41.757Z,12.73
2018-06-09T08:48:10.311Z,12.17
2018-06-09T08:50:38.898Z,12.70
2018-06-09T08:53:07.500Z,12.20
2018-06-09T08:55:36.085Z,13.30
2018-06-09T08:58:04.665Z,12.43
2018-06-09T09:00:33.165Z,13.13
2018-06-09T09:03:01.787Z,12.57
2018-06-09T09:05:30.349Z,12.57
2018-06-09T09:07:58.921Z,12.23
2018-06-09T09:10:27.538Z,12.00
2018-06-09T09:12:56.074Z,12.93
2018-06-09T09:15:24.584Z,10.60
2018-06-09T09:17:53.123Z,10.97
2018-06-09T09:20:21.665Z,12.30
2018-06-09T09:22:50.519Z,10.70
2018-06-09T09:25:19.505Z,11.63
2018-06-09T09:27:48.113Z,11.53
2018-06-09T09:30:16.974Z,10.37
2018-06-09T09:32:45.549Z,11.07
2018-06-09T09:35:14.039Z,10.50
2018-06-09T09:37:42.621Z,9.97
2018-06-09T09:40:11.557Z,13.33
2018-06-09T09:42:40.419Z,11.93
2018-06-09T09:45:09.017Z,12.03
2018-06-09T09:47:37.585Z,11.93
2018-06-09T09:50:06.327Z,11.20
2018-06-09T09:52:34.867Z,11.63
2018-06-09T09:55:03.461Z,12.00
2018-06-09T09:57:42.721Z,11.40
2018-06-09T10:00:11.362Z,11.10
2018-06-09T10:02:39.929Z,11.47
2018-06-09T10:05:08.551Z,13.70
2018-06-09T10:07:37.110Z,9.57
2018-06-09T10:10:05.706Z,12.07
2018-06-09T10:12:34.292Z,12.17
2018-06-09T10:15:02.941Z,11.57
2018-06-09T10:17:31.964Z,11.40
2018-06-09T10:20:00.540Z,11.03
2018-06-09T10:22:29.133Z,10.07
2018-06-09T10:24:57.815Z,12.37
2018-06-09T10:27:26.369Z,9.93
2018-06-09T10:29:54.937Z,8.13
2018-06-09T10:32:23.579Z,9.70
2018-06-09T10:34:52.070Z,11.63
2018-06-09T10:37:20.660Z,10.80
2018-06-09T10:39:49.503Z,8.57
2018-06-09T10:42:18.271Z,10.47
2018-06-09T10:44:46.829Z,9.03
2018-06-09T10:47:21.118Z,12.50
2018-06-09T10:49:49.609Z,9.43
2018-06-09T10:52:18.149Z,12.13
2018-06-09T10:54:47.639Z,11.87
2018-06-09T10:57:16.270Z,8.90
2018-06-09T10:59:44.837Z,9.47
2018-06-09T11:02:13.554Z,11.23
2018-06-09T11:04:42.144Z,10.43
2018-06-09T11:07:10.644Z,13.07
2018-06-09T11:09:39.199Z,11.00
2018-06-09T11:12:07.798Z,8.83
2018-06-09T11:14:36.300Z,12.87
2018-06-09T11:17:04.891Z,11.17
2018-06-09T11:19:33.470Z,12.40
2018-06-09T11:22:02.064Z,11.63
2018-06-09T11:24:30.605Z,9.80
2018-06-09T11:26:59.116Z,9.77
2018-06-09T11:29:27.676Z,11.27
2018-06-09T11:31:56.398Z,11.33
2018-06-09T11:34:24.905Z,11.90
2018-06-09T11:36:53.633Z,8.43
2018-06-09T11:39:22.309Z,10.50
2018-06-09T11:41:50.899Z,11.07
2018-06-09T11:44:19.800Z,10.30
2018-06-09T11:46:48.013Z,11.30
2018-06-09T11:49:17.235Z,10.60
2018-06-09T11:51:46.836Z,11.27
2018-06-09T11:54:15.746Z,11.13
2018-06-09T11:56:44.336Z,9.60
2018-06-09T11:59:12.825Z,11.23
2018-06-09T12:01:41.349Z,10.47
2018-06-09T12:04:09.917Z,10.43
2018-06-09T12:06:38.554Z,10.70
2018-06-09T12:09:07.836Z,11.40
2018-06-09T12:11:36.764Z,12.00
2018-06-09T12:14:05.408Z,10.93
2018-06-09T12:16:34.080Z,9.10
2018-06-09T12:19:02.649Z,7.87
2018-06-09T12:21:31.197Z,8.17
2018-06-09T12:23:59.724Z,10.83
2018-06-09T12:26:28.237Z,8.33
2018-06-09T12:28:56.457Z,9.27
2018-06-09T12:31:25.023Z,8.70
2018-06-09T12:33:53.612Z,9.33
2018-06-09T12:36:22.246Z,9.27
2018-06-09T12:38:50.878Z,9.63
2018-06-09T12:41:19.483Z,10.57
2018-06-09T12:43:48.071Z,10.10
2018-06-09T12:46:16.681Z,9.80
2018-06-09T12:48:45.365Z,8.60
2018-06-09T12:51:13.840Z,9.00
2018-06-09T12:53:42.326Z,7.10
2018-06-09T12:56:10.866Z,10.93
2018-06-09T12:58:39.995Z,10.03
2018-06-09T13:01:14.234Z,7.80
2018-06-09T13:03:42.780Z,8.20
2018-06-09T13:06:11.399Z,8.60
2018-06-09T13:08:40.236Z,7.80
2018-06-09T13:11:08.757Z,9.80
2018-06-09T13:13:37.257Z,7.97
2018-06-09T13:16:05.803Z,8.70
2018-06-09T13:18:34.343Z,8.80
2018-06-09T13:21:02.911Z,10.17
2018-06-09T13:23:31.479Z,9.20
2018-06-09T13:26:00.650Z,9.90
2018-06-09T13:28:29.210Z,8.90
2018-06-09T13:30:57.746Z,9.37
2018-06-09T13:33:26.245Z,7.97
2018-06-09T13:35:54.812Z,10.10
2018-06-09T13:38:23.369Z,8.37
2018-06-09T13:40:51.925Z,12.00
2018-06-09T13:43:20.570Z,9.70
2018-06-09T13:45:49.108Z,10.27
2018-06-09T13:48:17.763Z,11.93
2018-06-09T13:50:46.665Z,11.13
2018-06-09T13:53:15.172Z,10.43
2018-06-09T13:55:43.763Z,12.17
2018-06-09T13:58:12.070Z,10.33
2018-06-09T14:00:40.754Z,9.50
2018-06-09T14:03:09.746Z,11.03
2018-06-09T14:05:42.353Z,11.77
2018-06-09T14:08:10.913Z,10.53
2018-06-09T14:10:39.444Z,12.50
2018-06-09T14:13:08.016Z,11.10
2018-06-09T14:15:36.600Z,11.33
2018-06-09T14:18:05.162Z,12.53
2018-06-09T14:20:33.715Z,10.40
2018-06-09T14:23:02.216Z,11.10
2018-06-09T14:25:30.758Z,12.10
2018-06-09T14:28:18.778Z,10.83
2018-06-09T14:30:47.372Z,11.10
2018-06-09T14:33:15.903Z,10.20
2018-06-09T14:35:44.429Z,12.10
2018-06-09T14:38:13.016Z,12.77
2018-06-09T14:40:41.844Z,12.47
2018-06-09T14:43:11.379Z,13.67
2018-06-09T14:45:40.503Z,12.93
2018-06-09T14:48:08.994Z,11.23
2018-06-09T14:50:50.272Z,11.50
2018-06-09T14:53:18.861Z,12.00
2018-06-09T14:55:47.401Z,11.10
2018-06-09T14:58:15.919Z,12.50
2018-06-09T15:00:44.739Z,11.50
2018-06-09T15:03:13.326Z,11.70
2018-06-09T15:05:41.864Z,11.33
2018-06-09T15:08:10.451Z,10.87
2018-06-09T15:10:39.716Z,12.13
2018-06-09T15:13:10.330Z,10.90
2018-06-09T15:15:39.218Z,13.27
2018-06-09T15:18:07.739Z,10.70
2018-06-09T15:20:36.227Z,10.90
2018-06-09T15:23:04.983Z,12.43
2018-06-09T15:25:33.491Z,10.43
2018-06-09T15:28:02.267Z,11.03
2018-06-09T15:30:30.792Z,11.47
2018-06-09T15:32:59.588Z,11.03
2018-06-09T15:35:28.070Z,11.37
2018-06-09T15:37:56.607Z,12.67
2018-06-09T15:40:25.233Z,12.33
2018-06-09T15:42:53.783Z,11.40
2018-06-09T15:45:22.331Z,10.80
2018-06-09T15:47:50.991Z,11.43
2018-06-09T15:50:19.797Z,12.43
2018-06-09T15:52:48.389Z,11.40
2018-06-09T15:55:16.876Z,10.63
2018-06-09T15:57:45.758Z,11.23
2018-06-09T16:00:14.348Z,12.00
2018-06-09T16:02:43.198Z,11.97
2018-06-09T16:05:11.679Z,13.13
2018-06-09T16:07:40.426Z,14.17
2018-06-09T16:10:08.845Z,12.70
2018-06-09T16:12:37.385Z,13.80
2018-06-09T16:15:05.905Z,14.30
2018-06-09T16:17:34.454Z,12.93
2018-06-09T16:20:03.035Z,13.00
2018-06-09T16:22:31.985Z,12.57
2018-06-09T16:25:00.672Z,12.60
2018-06-09T16:27:29.283Z,12.27
2018-06-09T16:29:57.889Z,13.43
2018-06-09T16:32:26.463Z,14.23
2018-06-09T16:34:56.158Z,13.77
2018-06-09T16:37:24.752Z,14.13
2018-06-09T16:39:53.367Z,13.67
2018-06-09T16:42:22.124Z,13.80
2018-06-09T16:44:50.696Z,13.83
2018-06-09T16:47:19.258Z,14.00
2018-06-09T16:49:47.892Z,14.17
2018-06-09T16:52:16.531Z,14.50
2018-06-09T16:54:45.179Z,15.10
2018-06-09T16:57:14.030Z,14.67
2018-06-09T16:59:42.505Z,15.37
2018-06-09T17:02:11.026Z,14.87
2018-06-09T17:04:39.576Z,15.17
2018-06-09T17:07:07.822Z,15.30
2018-06-09T17:09:36.351Z,14.77
2018-06-09T17:12:04.818Z,14.40
2018-06-09T17:14:33.357Z,14.57
2018-06-09T17:17:01.943Z,14.53
2018-06-09T17:19:30.499Z,15.40
2018-06-09T17:21:59.388Z,13.90
2018-06-09T17:24:28.036Z,15.63
2018-06-09T17:26:56.635Z,15.77
2018-06-09T17:29:25.766Z,16.30
2018-06-09T17:31:54.275Z,15.50
2018-06-09T17:34:22.945Z,15.20
2018-06-09T17:36:51.575Z,14.63
2018-06-09T17:39:20.132Z,16.67
2018-06-09T17:41:48.740Z,17.47
2018-06-09T17:44:17.306Z,15.63
2018-06-09T17:46:45.513Z,15.80
2018-06-09T17:49:14.921Z,15.07
2018-06-09T17:51:43.472Z,15.03
2018-06-09T17:54:12.018Z,14.20
2018-06-09T17:56:40.591Z,16.17
2018-06-09T17:59:09.101Z,15.23
2018-06-09T18:01:37.709Z,15.27
2018-06-09T18:04:06.272Z,17.73
2018-06-09T18:06:34.826Z,15.13
2018-06-09T18:09:03.822Z,16.00
2018-06-09T18:11:32.327Z,15.53
2018-06-09T18:14:00.888Z,14.13
2018-06-09T18:16:29.503Z,14.33
2018-06-09T18:18:58.102Z,13.90
2018-06-09T18:21:26.648Z,14.80
2018-06-09T18:23:55.301Z,12.90
2018-06-09T18:26:23.928Z,12.43
2018-06-09T18:28:52.402Z,13.40
2018-06-09T18:31:20.951Z,12.80
2018-06-09T18:33:49.569Z,12.60
2018-06-09T18:36:18.110Z,12.53
2018-06-09T18:38:46.650Z,12.17
2018-06-09T18:41:15.321Z,12.30
2018-06-09T18:43:43.924Z,12.57
2018-06-09T18:46:12.458Z,12.37
2018-06-09T18:48:40.978Z,12.27
2018-06-09T18:51:09.522Z,11.87
2018-06-09T18:53:38.061Z,11.97
2018-06-09T18:56:06.578Z,12.00
2018-06-09T18:58:35.207Z,11.37
2018-06-09T19:01:03.717Z,11.73
2018-06-09T19:03:32.238Z,11.10
2018-06-09T19:06:00.791Z,11.93
2018-06-09T19:08:29.298Z,12.50
2018-06-09T19:10:58.048Z,12.50
2018-06-09T19:13:26.590Z,11.20
2018-06-09T19:15:55.162Z,12.90
2018-06-09T19:18:23.750Z,12.47
2018-06-09T19:20:52.298Z,13.37
2018-06-09T19:23:20.883Z,14.37
2018-06-09T19:25:49.463Z,13.00
2018-06-09T19:28:17.994Z,12.80
2018-06-09T19:30:46.771Z,13.80
2018-06-09T19:33:15.326Z,13.50
2018-06-09T19:35:43.874Z,13.60
2018-06-09T19:38:12.533Z,13.27
2018-06-09T19:40:41.125Z,14.13
2018-06-09T19:43:09.583Z,14.50
2018-06-09T19:45:38.074Z,13.70
2018-06-09T19:48:06.581Z,13.43
2018-06-09T19:50:35.174Z,13.90
2018-06-09T19:53:03.716Z,13.67
2018-06-09T19:55:32.270Z,14.03
2018-06-09T19:58:00.793Z,14.73
2018-06-09T20:00:29.362Z,15.00
2018-06-09T20:02:59.109Z,14.30
2018-06-09T20:05:27.683Z,15.20
2018-06-09T20:07:56.793Z,14.20
2018-06-09T20:10:25.461Z,15.40
2018-06-09T20:12:54.061Z,15.63
2018-06-09T20:15:23.365Z,15.67
2018-06-09T20:17:52.271Z,15.73
2018-06-09T20:20:20.906Z,16.37
2018-06-09T20:22:49.546Z,15.97
2018-06-09T20:25:18.091Z,16.13
2018-06-09T20:27:46.703Z,15.67
2018-06-09T20:30:15.327Z,16.77
2018-06-09T20:32:43.867Z,16.00
2018-06-09T20:35:12.482Z,16.90
2018-06-09T20:37:41.208Z,16.00
2018-06-09T20:40:09.796Z,15.77
2018-06-09T20:42:39.072Z,15.30
2018-06-09T20:45:08.117Z,15.00
2018-06-09T20:47:37.018Z,14.97
2018-06-09T20:50:05.568Z,15.23
2018-06-09T20:52:33.800Z,15.30
2018-06-09T20:55:02.276Z,15.00
2018-06-09T20:57:30.860Z,14.97
2018-06-09T20:59:59.397Z,15.17
2018-06-09T21:02:27.726Z,14.90
2018-06-09T21:04:56.309Z,14.67
2018-06-09T21:07:24.895Z,15.17
2018-06-09T21:09:53.445Z,14.60
2018-06-09T21:12:21.997Z,15.33
2018-06-09T21:14:50.652Z,13.13
2018-06-09T21:17:19.234Z,13.80
2018-06-09T21:19:48.265Z,13.30
2018-06-09T21:22:16.820Z,13.23
2018-06-09T21:24:45.784Z,12.90
2018-06-09T21:27:19.716Z,12.67
2018-06-09T21:29:55.994Z,14.30
2018-06-09T21:32:29.867Z,13.33
2018-06-09T21:35:14.998Z,13.03
2018-06-09T21:37:47.177Z,13.67
2018-06-09T21:40:36.245Z,12.23
2018-06-09T21:45:14.658Z,12.40
2018-06-09T21:47:43.230Z,12.63
2018-06-09T21:50:11.812Z,14.40
2018-06-09T21:52:40.389Z,13.40
2018-06-09T21:55:08.859Z,13.67
2018-06-09T21:57:38.165Z,13.43
2018-06-09T22:00:07.104Z,13.37
2018-06-09T22:02:36.155Z,12.97
2018-06-09T22:05:04.780Z,12.73
2018-06-09T22:07:33.333Z,13.13
2018-06-09T22:10:02.358Z,14.57
2018-06-09T22:12:30.983Z,13.10
2018-06-09T22:14:59.653Z,14.73
2018-06-09T22:17:28.414Z,14.03
2018-06-09T22:19:57.145Z,13.30
2018-06-09T22:22:26.091Z,13.23
2018-06-09T22:24:54.872Z,12.93
2018-06-09T22:27:23.676Z,13.63
2018-06-09T22:29:52.365Z,15.23
2018-06-09T22:32:21.086Z,14.07
2018-06-09T22:34:49.760Z,13.10
2018-06-09T22:37:19.520Z,13.83
2018-06-09T22:39:51.450Z,14.70
2018-06-09T22:42:20.042Z,14.17
2018-06-09T22:44:49.467Z,14.03
2018-06-09T22:47:18.014Z,14.33
2018-06-09T22:49:47.039Z,13.63
2018-06-09T22:52:15.557Z,14.03
2018-06-09T22:54:44.182Z,14.57
2018-06-09T22:57:13.406Z,13.97
2018-06-09T22:59:41.982Z,13.50
2018-06-09T23:02:10.512Z,14.27
2018-06-09T23:04:39.740Z,13.80
2018-06-09T23:07:08.206Z,13.83
2018-06-09T23:09:36.749Z,15.00
2018-06-09T23:12:05.244Z,14.10
2018-06-09T23:14:56.234Z,14.50
2018-06-09T23:17:25.029Z,14.40
2018-06-09T23:19:53.586Z,15.90
2018-06-09T23:22:21.837Z,14.90
2018-06-09T23:24:50.295Z,15.13
2018-06-09T23:27:18.809Z,15.60
2018-06-09T23:29:47.489Z,15.53
2018-06-09T23:32:16.074Z,15.50
2018-06-09T23:34:44.590Z,16.20
2018-06-09T23:37:13.207Z,15.73
2018-06-09T23:39:41.848Z,16.10
2018-06-09T23:42:10.413Z,16.20
2018-06-09T23:44:39.916Z,16.20
2018-06-09T23:47:08.455Z,16.23
2018-06-09T23:49:37.997Z,15.63
2018-06-09T23:52:06.488Z,16.40
2018-06-09T23:54:34.968Z,15.60
2018-06-09T23:57:03.493Z,16.70
2018-06-09T23:59:31.955Z,16.17
